sensor_id;sensor_type;location;lat;lon;timestamp;pressure;altitude;pressure_sealevel;temperature;humidity
28428;BME280;15662;49.128;8.520;2023-05-23T00:02:07;100253.63;;;24.44;50.01
28428;BME280;15662;49.128;8.520;2023-05-23T00:04:35;100262.75;;;24.43;50.13
28428;BME280;15662;49.128;8.520;2023-05-23T00:07:03;100253.16;;;24.39;50.25
28428;BME280;15662;49.128;8.520;2023-05-23T00:09:31;100255.03;;;24.39;50.01
28428;BME280;15662;49.128;8.520;2023-05-23T00:11:59;100260.69;;;24.36;49.97
28428;BME280;15662;49.128;8.520;2023-05-23T00:14:27;100260.91;;;24.33;50.31
28428;BME280;15662;49.128;8.520;2023-05-23T00:17:00;100271.16;;;24.29;50.03
28428;BME280;15662;49.128;8.520;2023-05-23T00:19:28;100282.25;;;24.26;50.12
28428;BME280;15662;49.128;8.520;2023-05-23T00:21:56;100276.13;;;24.24;50.40
28428;BME280;15662;49.128;8.520;2023-05-23T00:24:25;100277.97;;;24.24;50.47
28428;BME280;15662;49.128;8.520;2023-05-23T00:26:53;100275.38;;;24.22;50.29
28428;BME280;15662;49.128;8.520;2023-05-23T00:29:21;100270.81;;;24.23;50.59
28428;BME280;15662;49.128;8.520;2023-05-23T00:31:50;100276.22;;;24.23;50.50
28428;BME280;15662;49.128;8.520;2023-05-23T00:34:18;100279.22;;;24.19;50.36
28428;BME280;15662;49.128;8.520;2023-05-23T00:36:46;100271.19;;;24.18;50.56
28428;BME280;15662;49.128;8.520;2023-05-23T00:39:16;100267.91;;;24.14;50.64
28428;BME280;15662;49.128;8.520;2023-05-23T00:41:49;100267.03;;;24.14;50.67
28428;BME280;15662;49.128;8.520;2023-05-23T00:44:20;100269.84;;;24.12;50.65
28428;BME280;15662;49.128;8.520;2023-05-23T00:46:53;100276.13;;;24.13;50.56
28428;BME280;15662;49.128;8.520;2023-05-23T00:49:23;100274.69;;;24.09;50.87
28428;BME280;15662;49.128;8.520;2023-05-23T00:51:54;100272.09;;;24.07;50.51
28428;BME280;15662;49.128;8.520;2023-05-23T00:54:25;100288.22;;;24.09;50.77
28428;BME280;15662;49.128;8.520;2023-05-23T00:56:55;100293.03;;;24.05;50.92
28428;BME280;15662;49.128;8.520;2023-05-23T00:59:24;100295.84;;;24.04;51.00
28428;BME280;15662;49.128;8.520;2023-05-23T01:01:55;100294.28;;;24.01;50.98
28428;BME280;15662;49.128;8.520;2023-05-23T01:04:23;100288.38;;;23.96;51.01
28428;BME280;15662;49.128;8.520;2023-05-23T01:06:56;100289.97;;;23.99;50.83
28428;BME280;15662;49.128;8.520;2023-05-23T01:09:27;100279.41;;;23.96;51.06
28428;BME280;15662;49.128;8.520;2023-05-23T01:15:08;100288.94;;;23.67;51.30
28428;BME280;15662;49.128;8.520;2023-05-23T01:18:15;100286.09;;;23.80;51.17
28428;BME280;15662;49.128;8.520;2023-05-23T01:20:51;100283.38;;;23.80;51.32
28428;BME280;15662;49.128;8.520;2023-05-23T01:29:31;100287.69;;;23.72;51.35
28428;BME280;15662;49.128;8.520;2023-05-23T01:32:02;100288.78;;;23.69;51.51
28428;BME280;15662;49.128;8.520;2023-05-23T01:34:34;100287.06;;;23.68;51.38
28428;BME280;15662;49.128;8.520;2023-05-23T01:37:10;100294.97;;;23.71;51.44
28428;BME280;15662;49.128;8.520;2023-05-23T01:39:41;100290.91;;;23.65;51.50
28428;BME280;15662;49.128;8.520;2023-05-23T01:42:09;100297.31;;;23.64;51.89
28428;BME280;15662;49.128;8.520;2023-05-23T01:44:37;100302.72;;;23.64;52.06
28428;BME280;15662;49.128;8.520;2023-05-23T01:47:07;100301.84;;;23.64;51.80
28428;BME280;15662;49.128;8.520;2023-05-23T01:49:36;100301.84;;;23.64;51.88
28428;BME280;15662;49.128;8.520;2023-05-23T01:52:05;100306.28;;;23.65;52.10
28428;BME280;15662;49.128;8.520;2023-05-23T01:54:37;100319.81;;;23.65;51.95
28428;BME280;15662;49.128;8.520;2023-05-23T01:57:05;100314.50;;;23.63;51.99
28428;BME280;15662;49.128;8.520;2023-05-23T01:59:33;100319.81;;;23.65;52.02
28428;BME280;15662;49.128;8.520;2023-05-23T02:02:01;100315.25;;;23.65;52.18
28428;BME280;15662;49.128;8.520;2023-05-23T02:04:29;100311.56;;;23.66;52.18
28428;BME280;15662;49.128;8.520;2023-05-23T02:06:58;100314.41;;;23.65;52.06
28428;BME280;15662;49.128;8.520;2023-05-23T02:09:26;100309.09;;;23.63;52.32
28428;BME280;15662;49.128;8.520;2023-05-23T02:11:54;100317.44;;;23.60;52.05
28428;BME280;15662;49.128;8.520;2023-05-23T02:14:22;100311.28;;;23.58;52.09
28428;BME280;15662;49.128;8.520;2023-05-23T02:16:50;100305.38;;;23.53;52.39
28428;BME280;15662;49.128;8.520;2023-05-23T02:19:20;100310.94;;;23.52;52.49
28428;BME280;15662;49.128;8.520;2023-05-23T02:21:48;100312.28;;;23.46;52.39
28428;BME280;15662;49.128;8.520;2023-05-23T02:24:16;100316.09;;;23.43;52.34
28428;BME280;15662;49.128;8.520;2023-05-23T02:26:45;100310.09;;;23.40;52.22
28428;BME280;15662;49.128;8.520;2023-05-23T02:29:12;100315.97;;;23.34;52.22
28428;BME280;15662;49.128;8.520;2023-05-23T02:31:40;100315.09;;;23.33;52.13
28428;BME280;15662;49.128;8.520;2023-05-23T02:34:08;100311.03;;;23.28;52.03
28428;BME280;15662;49.128;8.520;2023-05-23T02:36:36;100314.97;;;23.24;52.29
28428;BME280;15662;49.128;8.520;2023-05-23T02:39:05;100314.13;;;23.23;52.03
28428;BME280;15662;49.128;8.520;2023-05-23T02:41:33;100320.66;;;23.21;51.99
28428;BME280;15662;49.128;8.520;2023-05-23T02:44:02;100323.44;;;23.19;52.41
28428;BME280;15662;49.128;8.520;2023-05-23T02:46:30;100321.00;;;23.16;52.38
28428;BME280;15662;49.128;8.520;2023-05-23T02:48:57;100318.31;;;23.16;52.49
28428;BME280;15662;49.128;8.520;2023-05-23T02:51:26;100322.94;;;23.14;52.43
28428;BME280;15662;49.128;8.520;2023-05-23T02:53:54;100316.94;;;23.10;52.09
28428;BME280;15662;49.128;8.520;2023-05-23T02:56:22;100326.66;;;23.13;52.52
28428;BME280;15662;49.128;8.520;2023-05-23T02:58:50;100319.88;;;23.07;52.39
28428;BME280;15662;49.128;8.520;2023-05-23T03:01:19;100321.47;;;23.10;52.51
28428;BME280;15662;49.128;8.520;2023-05-23T03:03:48;100325.16;;;23.09;52.42
28428;BME280;15662;49.128;8.520;2023-05-23T03:06:16;100321.72;;;23.07;52.51
28428;BME280;15662;49.128;8.520;2023-05-23T03:08:44;100319.13;;;23.05;52.57
28428;BME280;15662;49.128;8.520;2023-05-23T03:11:11;100328.84;;;23.08;52.63
28428;BME280;15662;49.128;8.520;2023-05-23T03:13:39;100324.53;;;23.05;52.73
28428;BME280;15662;49.128;8.520;2023-05-23T03:16:07;100327.88;;;23.09;52.93
28428;BME280;15662;49.128;8.520;2023-05-23T03:18:35;100323.44;;;23.08;52.87
28428;BME280;15662;49.128;8.520;2023-05-23T03:21:03;100329.72;;;23.08;52.86
28428;BME280;15662;49.128;8.520;2023-05-23T03:23:31;100340.41;;;23.10;52.90
28428;BME280;15662;49.128;8.520;2023-05-23T03:25:58;100345.69;;;23.11;52.92
28428;BME280;15662;49.128;8.520;2023-05-23T03:28:27;100342.00;;;23.12;53.03
28428;BME280;15662;49.128;8.520;2023-05-23T03:30:55;100340.03;;;23.14;53.02
28428;BME280;15662;49.128;8.520;2023-05-23T03:33:22;100341.88;;;23.14;53.09
28428;BME280;15662;49.128;8.520;2023-05-23T03:35:51;100340.03;;;23.14;52.88
28428;BME280;15662;49.128;8.520;2023-05-23T03:38:19;100346.19;;;23.16;52.89
28428;BME280;15662;49.128;8.520;2023-05-23T03:40:47;100345.34;;;23.16;53.08
28428;BME280;15662;49.128;8.520;2023-05-23T03:43:15;100347.19;;;23.15;53.22
28428;BME280;15662;49.128;8.520;2023-05-23T03:45:43;100350.97;;;23.13;53.28
28428;BME280;15662;49.128;8.520;2023-05-23T03:48:14;100349.25;;;23.12;52.94
28428;BME280;15662;49.128;8.520;2023-05-23T03:50:42;100344.09;;;23.09;52.91
28428;BME280;15662;49.128;8.520;2023-05-23T03:53:11;100357.50;;;23.10;52.89
28428;BME280;15662;49.128;8.520;2023-05-23T03:55:39;100353.31;;;23.06;52.96
28428;BME280;15662;49.128;8.520;2023-05-23T03:58:07;100359.81;;;23.04;52.85
28428;BME280;15662;49.128;8.520;2023-05-23T04:00:35;100358.81;;;23.05;53.08
28428;BME280;15662;49.128;8.520;2023-05-23T04:03:06;100357.72;;;22.96;53.11
28428;BME280;15662;49.128;8.520;2023-05-23T04:05:35;100364.72;;;22.99;53.17
28428;BME280;15662;49.128;8.520;2023-05-23T04:08:04;100358.66;;;22.95;53.19
28428;BME280;15662;49.128;8.520;2023-05-23T04:10:32;100370.47;;;22.94;53.45
28428;BME280;15662;49.128;8.520;2023-05-23T04:12:59;100370.47;;;22.94;53.34
28428;BME280;15662;49.128;8.520;2023-05-23T04:15:27;100378.56;;;22.94;53.27
28428;BME280;15662;49.128;8.520;2023-05-23T04:17:59;100366.78;;;22.95;53.26
28428;BME280;15662;49.128;8.520;2023-05-23T04:20:27;100370.38;;;22.96;53.18
28428;BME280;15662;49.128;8.520;2023-05-23T04:22:55;100362.13;;;22.97;53.14
28428;BME280;15662;49.128;8.520;2023-05-23T04:25:24;100370.88;;;23.01;53.02
28428;BME280;15662;49.128;8.520;2023-05-23T04:28:05;100382.63;;;23.00;52.83
28428;BME280;15662;49.128;8.520;2023-05-23T04:30:35;100378.59;;;23.05;52.87
28428;BME280;15662;49.128;8.520;2023-05-23T04:33:03;100384.63;;;23.09;52.56
28428;BME280;15662;49.128;8.520;2023-05-23T04:35:31;100379.72;;;23.14;52.49
28428;BME280;15662;49.128;8.520;2023-05-23T04:38:01;100385.13;;;23.14;52.50
28428;BME280;15662;49.128;8.520;2023-05-23T04:40:31;100384.28;;;23.13;52.47
28428;BME280;15662;49.128;8.520;2023-05-23T04:43:24;100386.13;;;23.13;52.38
28428;BME280;15662;49.128;8.520;2023-05-23T04:45:56;100388.09;;;23.11;52.22
28428;BME280;15662;49.128;8.520;2023-05-23T04:48:40;100390.53;;;23.14;52.05
28428;BME280;15662;49.128;8.520;2023-05-23T04:51:09;100398.66;;;23.14;51.71
28428;BME280;15662;49.128;8.520;2023-05-23T04:53:52;100391.66;;;23.11;51.87
28428;BME280;15662;49.128;8.520;2023-05-23T04:56:21;100391.66;;;23.11;51.88
28428;BME280;15662;49.128;8.520;2023-05-23T04:58:51;100395.34;;;23.10;51.73
28428;BME280;15662;49.128;8.520;2023-05-23T05:01:19;100393.59;;;23.09;51.58
28428;BME280;15662;49.128;8.520;2023-05-23T05:03:51;100401.41;;;22.90;51.74
28428;BME280;15662;49.128;8.520;2023-05-23T05:06:21;100397.00;;;23.00;51.82
28428;BME280;15662;49.128;8.520;2023-05-23T05:08:51;100408.25;;;23.07;51.60
28428;BME280;15662;49.128;8.520;2023-05-23T05:11:20;100410.34;;;23.14;51.26
28428;BME280;15662;49.128;8.520;2023-05-23T05:13:50;100409.97;;;23.19;51.19
28428;BME280;15662;49.128;8.520;2023-05-23T05:16:19;100417.84;;;23.22;51.26
28428;BME280;15662;49.128;8.520;2023-05-23T05:18:49;100405.19;;;23.23;51.06
28428;BME280;15662;49.128;8.520;2023-05-23T05:21:19;100413.31;;;23.23;51.16
28428;BME280;15662;49.128;8.520;2023-05-23T05:23:48;100424.97;;;23.23;50.84
28428;BME280;15662;49.128;8.520;2023-05-23T05:26:18;100425.97;;;23.22;51.13
28428;BME280;15662;49.128;8.520;2023-05-23T05:28:46;100431.38;;;23.22;50.97
28428;BME280;15662;49.128;8.520;2023-05-23T05:31:13;100433.84;;;23.25;50.87
28428;BME280;15662;49.128;8.520;2023-05-23T05:33:43;100432.97;;;23.25;50.83
28428;BME280;15662;49.128;8.520;2023-05-23T05:36:14;100436.56;;;23.25;50.85
28428;BME280;15662;49.128;8.520;2023-05-23T05:38:43;100439.13;;;23.27;50.65
28428;BME280;15662;49.128;8.520;2023-05-23T05:41:11;100437.28;;;23.27;50.70
28428;BME280;15662;49.128;8.520;2023-05-23T05:43:44;100441.84;;;23.27;50.47
28428;BME280;15662;49.128;8.520;2023-05-23T05:46:14;100445.19;;;23.30;50.62
28428;BME280;15662;49.128;8.520;2023-05-23T05:48:42;100450.47;;;23.32;50.35
28428;BME280;15662;49.128;8.520;2023-05-23T05:51:12;100451.44;;;23.31;49.94
28428;BME280;15662;49.128;8.520;2023-05-23T05:53:41;100453.66;;;23.37;49.97
28428;BME280;15662;49.128;8.520;2023-05-23T05:56:16;100466.06;;;23.39;49.79
28428;BME280;15662;49.128;8.520;2023-05-23T05:58:44;100465.13;;;23.40;49.77
28428;BME280;15662;49.128;8.520;2023-05-23T06:01:16;100473.84;;;23.44;49.64
28428;BME280;15662;49.128;8.520;2023-05-23T06:03:44;100466.34;;;23.48;49.63
28428;BME280;15662;49.128;8.520;2023-05-23T06:06:12;100478.53;;;23.53;49.61
28428;BME280;15662;49.128;8.520;2023-05-23T06:08:41;100472.03;;;23.56;49.21
28428;BME280;15662;49.128;8.520;2023-05-23T06:11:13;100488.13;;;23.57;49.08
28428;BME280;15662;49.128;8.520;2023-05-23T06:13:41;100476.09;;;23.61;48.97
28428;BME280;15662;49.128;8.520;2023-05-23T06:16:11;100485.75;;;23.65;48.80
28428;BME280;15662;49.128;8.520;2023-05-23T06:18:39;100482.78;;;23.68;48.60
28428;BME280;15662;49.128;8.520;2023-05-23T06:21:08;100486.25;;;23.71;48.26
28428;BME280;15662;49.128;8.520;2023-05-23T06:23:37;100484.53;;;23.70;48.48
28428;BME280;15662;49.128;8.520;2023-05-23T06:26:05;100487.97;;;23.72;48.41
28428;BME280;15662;49.128;8.520;2023-05-23T06:28:38;100489.94;;;23.70;48.22
28428;BME280;15662;49.128;8.520;2023-05-23T06:31:08;100497.78;;;23.73;47.91
28428;BME280;15662;49.128;8.520;2023-05-23T06:33:39;100504.19;;;23.72;47.81
28428;BME280;15662;49.128;8.520;2023-05-23T06:36:09;100506.91;;;23.72;47.87
28428;BME280;15662;49.128;8.520;2023-05-23T06:38:38;100507.16;;;23.80;47.62
28428;BME280;15662;49.128;8.520;2023-05-23T06:41:06;100509.63;;;23.83;47.60
28428;BME280;15662;49.128;8.520;2023-05-23T06:43:35;100525.25;;;23.90;47.68
28428;BME280;15662;49.128;8.520;2023-05-23T06:46:13;100512.72;;;23.89;47.25
28428;BME280;15662;49.128;8.520;2023-05-23T06:48:43;100525.88;;;23.94;47.06
28428;BME280;15662;49.128;8.520;2023-05-23T06:51:12;100526.00;;;23.92;47.02
28428;BME280;15662;49.128;8.520;2023-05-23T06:53:42;100526.97;;;23.91;46.97
28428;BME280;15662;49.128;8.520;2023-05-23T06:56:10;100530.19;;;23.97;46.60
28428;BME280;15662;49.128;8.520;2023-05-23T06:58:48;100529.19;;;23.98;46.76
28428;BME280;15662;49.128;8.520;2023-05-23T07:01:16;100528.34;;;23.97;46.58
28428;BME280;15662;49.128;8.520;2023-05-23T07:03:47;100531.03;;;23.97;46.75
28428;BME280;15662;49.128;8.520;2023-05-23T07:06:17;100546.06;;;24.01;46.47
28428;BME280;15662;49.128;8.520;2023-05-23T07:08:45;100541.00;;;23.97;46.13
28428;BME280;15662;49.128;8.520;2023-05-23T07:11:15;100543.09;;;23.93;46.47
28428;BME280;15662;49.128;8.520;2023-05-23T07:13:48;100549.88;;;23.99;46.38
28428;BME280;15662;49.128;8.520;2023-05-23T07:16:22;100540.78;;;24.00;45.89
28428;BME280;15662;49.128;8.520;2023-05-23T07:19:01;100555.19;;;24.00;45.91
28428;BME280;15662;49.128;8.520;2023-05-23T07:21:30;100553.06;;;23.92;45.82
28428;BME280;15662;49.128;8.520;2023-05-23T07:23:58;100561.09;;;23.94;45.89
28428;BME280;15662;49.128;8.520;2023-05-23T07:26:27;100562.91;;;23.93;45.94
28428;BME280;15662;49.128;8.520;2023-05-23T07:28:56;100560.47;;;23.90;45.45
28428;BME280;15662;49.128;8.520;2023-05-23T07:31:25;100570.16;;;23.93;45.62
28428;BME280;15662;49.128;8.520;2023-05-23T07:33:57;100574.19;;;23.76;45.81
28428;BME280;15662;49.128;8.520;2023-05-23T07:36:31;100567.09;;;23.86;46.08
28428;BME280;15662;49.128;8.520;2023-05-23T07:39:02;100566.97;;;23.88;45.75
28428;BME280;15662;49.128;8.520;2023-05-23T07:41:30;100570.06;;;23.94;45.45
28428;BME280;15662;49.128;8.520;2023-05-23T07:43:58;100570.66;;;23.98;45.34
28428;BME280;15662;49.128;8.520;2023-05-23T07:46:26;100573.00;;;24.03;45.18
28428;BME280;15662;49.128;8.520;2023-05-23T07:48:54;100573.50;;;23.97;44.57
28428;BME280;15662;49.128;8.520;2023-05-23T07:51:23;100575.72;;;23.91;44.79
28428;BME280;15662;49.128;8.520;2023-05-23T07:53:51;100573.13;;;23.90;44.95
28428;BME280;15662;49.128;8.520;2023-05-23T07:56:22;100572.28;;;23.89;45.14
28428;BME280;15662;49.128;8.520;2023-05-23T07:58:50;100577.94;;;23.98;44.82
28428;BME280;15662;49.128;8.520;2023-05-23T08:01:20;100582.25;;;24.00;44.90
28428;BME280;15662;49.128;8.520;2023-05-23T08:04:07;100577.84;;;23.99;44.83
28428;BME280;15662;49.128;8.520;2023-05-23T08:06:40;100577.69;;;24.01;44.79
28428;BME280;15662;49.128;8.520;2023-05-23T08:09:40;100573.88;;;24.03;44.63
28428;BME280;15662;49.128;8.520;2023-05-23T08:12:10;100574.50;;;24.07;44.69
28428;BME280;15662;49.128;8.520;2023-05-23T08:14:39;100585.84;;;24.12;44.85
28428;BME280;15662;49.128;8.520;2023-05-23T08:17:29;100576.63;;;24.14;44.78
28428;BME280;15662;49.128;8.520;2023-05-23T08:19:59;100578.97;;;24.19;44.79
28428;BME280;15662;49.128;8.520;2023-05-23T08:22:29;100588.53;;;24.23;44.71
28428;BME280;15662;49.128;8.520;2023-05-23T08:24:59;100585.72;;;24.25;44.53
28428;BME280;15662;49.128;8.520;2023-05-23T08:27:29;100584.25;;;24.20;44.61
28428;BME280;15662;49.128;8.520;2023-05-23T08:30:03;100588.03;;;24.18;44.19
28428;BME280;15662;49.128;8.520;2023-05-23T08:32:33;100583.13;;;24.12;44.10
28428;BME280;15662;49.128;8.520;2023-05-23T08:35:01;100591.63;;;24.18;44.10
28428;BME280;15662;49.128;8.520;2023-05-23T08:37:30;100597.78;;;24.20;44.10
28428;BME280;15662;49.128;8.520;2023-05-23T08:39:58;100594.31;;;24.18;44.09
28428;BME280;15662;49.128;8.520;2023-05-23T08:42:39;100597.16;;;24.17;44.30
28428;BME280;15662;49.128;8.520;2023-05-23T08:45:09;100595.22;;;24.19;44.26
28428;BME280;15662;49.128;8.520;2023-05-23T08:47:42;100594.84;;;24.24;44.03
28428;BME280;15662;49.128;8.520;2023-05-23T08:50:13;100605.56;;;24.25;44.25
28428;BME280;15662;49.128;8.520;2023-05-23T08:52:58;100597.16;;;24.28;43.74
28428;BME280;15662;49.128;8.520;2023-05-23T08:55:28;100592.88;;;24.26;44.21
28428;BME280;15662;49.128;8.520;2023-05-23T08:57:59;100592.00;;;24.25;44.08
28428;BME280;15662;49.128;8.520;2023-05-23T09:00:37;100588.09;;;24.29;43.71
28428;BME280;15662;49.128;8.520;2023-05-23T09:03:04;100597.47;;;24.36;44.09
28428;BME280;15662;49.128;8.520;2023-05-23T09:05:58;100596.84;;;24.44;43.70
28428;BME280;15662;49.128;8.520;2023-05-23T09:08:27;100601.66;;;24.52;43.87
28428;BME280;15662;49.128;8.520;2023-05-23T09:10:58;100603.13;;;24.56;43.62
28428;BME280;15662;49.128;8.520;2023-05-23T09:13:30;100589.22;;;24.60;43.54
28428;BME280;15662;49.128;8.520;2023-05-23T09:16:07;100599.78;;;24.75;43.34
28428;BME280;15662;49.128;8.520;2023-05-23T09:18:49;100599.16;;;24.82;43.35
28428;BME280;15662;49.128;8.520;2023-05-23T09:21:20;100608.00;;;24.95;43.12
28428;BME280;15662;49.128;8.520;2023-05-23T09:24:14;100606.53;;;25.03;42.80
28428;BME280;15662;49.128;8.520;2023-05-23T09:26:48;100616.06;;;25.08;42.69
28428;BME280;15662;49.128;8.520;2023-05-23T09:29:19;100614.91;;;25.11;42.78
28428;BME280;15662;49.128;8.520;2023-05-23T09:31:48;100606.69;;;25.12;42.81
28428;BME280;15662;49.128;8.520;2023-05-23T09:34:16;100600.25;;;25.13;42.15
28428;BME280;15662;49.128;8.520;2023-05-23T09:36:45;100617.97;;;25.06;42.23
28428;BME280;15662;49.128;8.520;2023-05-23T09:39:14;100613.78;;;25.02;42.11
28428;BME280;15662;49.128;8.520;2023-05-23T09:41:43;100610.13;;;25.03;42.05
28428;BME280;15662;49.128;8.520;2023-05-23T09:44:22;100603.84;;;25.03;41.77
28428;BME280;15662;49.128;8.520;2023-05-23T09:46:50;100614.31;;;25.07;42.05
28428;BME280;15662;49.128;8.520;2023-05-23T09:49:21;100611.47;;;25.09;41.97
28428;BME280;15662;49.128;8.520;2023-05-23T09:51:59;100604.94;;;25.11;41.89
28428;BME280;15662;49.128;8.520;2023-05-23T09:54:28;100606.53;;;25.14;41.87
28428;BME280;15662;49.128;8.520;2023-05-23T09:56:59;100608.09;;;25.28;41.92
28428;BME280;15662;49.128;8.520;2023-05-23T09:59:30;100607.91;;;25.40;41.97
28428;BME280;15662;49.128;8.520;2023-05-23T10:02:01;100616.44;;;25.47;41.55
28428;BME280;15662;49.128;8.520;2023-05-23T10:04:30;100612.81;;;25.46;41.46
28428;BME280;15662;49.128;8.520;2023-05-23T10:07:12;100612.28;;;25.64;41.46
28428;BME280;15662;49.128;8.520;2023-05-23T10:10:00;100620.00;;;25.80;41.57
28428;BME280;15662;49.128;8.520;2023-05-23T10:12:49;100613.06;;;25.87;40.88
28428;BME280;15662;49.128;8.520;2023-05-23T10:15:21;100606.88;;;25.85;41.03
28428;BME280;15662;49.128;8.520;2023-05-23T10:18:15;100608.75;;;25.84;40.27
28428;BME280;15662;49.128;8.520;2023-05-23T10:20:48;100605.88;;;25.86;41.00
28428;BME280;15662;49.128;8.520;2023-05-23T10:23:16;100612.38;;;25.94;40.77
28428;BME280;15662;49.128;8.520;2023-05-23T10:25:47;100606.88;;;25.85;41.38
28428;BME280;15662;49.128;8.520;2023-05-23T10:28:15;100614.72;;;25.99;40.98
28428;BME280;15662;49.128;8.520;2023-05-23T10:30:45;100594.03;;;26.08;40.90
28428;BME280;15662;49.128;8.520;2023-05-23T10:33:14;100601.66;;;26.14;40.57
28428;BME280;15662;49.128;8.520;2023-05-23T10:35:56;100612.81;;;26.20;40.36
28428;BME280;15662;49.128;8.520;2023-05-23T10:39:13;100602.09;;;26.19;39.99
28428;BME280;15662;49.128;8.520;2023-05-23T10:41:51;100598.22;;;26.12;39.97
28428;BME280;15662;49.128;8.520;2023-05-23T10:44:29;100590.94;;;26.12;40.05
28428;BME280;15662;49.128;8.520;2023-05-23T10:47:00;100601.38;;;26.17;39.97
28428;BME280;15662;49.128;8.520;2023-05-23T10:49:40;100602.00;;;26.30;40.07
28428;BME280;15662;49.128;8.520;2023-05-23T10:52:13;100604.06;;;26.38;39.72
28428;BME280;15662;49.128;8.520;2023-05-23T10:54:50;100606.59;;;26.51;39.79
28428;BME280;15662;49.128;8.520;2023-05-23T10:57:26;100603.34;;;26.57;39.32
28428;BME280;15662;49.128;8.520;2023-05-23T10:59:56;100606.66;;;26.60;39.32
28428;BME280;15662;49.128;8.520;2023-05-23T11:02:28;100606.69;;;26.70;39.32
28428;BME280;15662;49.128;8.520;2023-05-23T11:05:22;100597.97;;;26.76;39.16
28428;BME280;15662;49.128;8.520;2023-05-23T11:08:13;100602.56;;;26.75;38.93
28428;BME280;15662;49.128;8.520;2023-05-23T11:11:02;100605.25;;;26.66;38.91
28428;BME280;15662;49.128;8.520;2023-05-23T11:14:08;100607.91;;;26.56;39.14
28428;BME280;15662;49.128;8.520;2023-05-23T11:16:41;100602.34;;;26.58;39.32
28428;BME280;15662;49.128;8.520;2023-05-23T11:24:51;100604.88;;;26.90;38.68
28428;BME280;15662;49.128;8.520;2023-05-23T11:27:37;100597.41;;;26.82;38.69
28428;BME280;15662;49.128;8.520;2023-05-23T11:30:12;100600.66;;;26.66;38.75
28428;BME280;15662;49.128;8.520;2023-05-23T11:32:49;100611.75;;;26.54;39.10
28428;BME280;15662;49.128;8.520;2023-05-23T11:35:17;100616.53;;;26.40;38.93
28428;BME280;15662;49.128;8.520;2023-05-23T11:37:46;100607.44;;;26.30;38.74
28428;BME280;15662;49.128;8.520;2023-05-23T11:40:41;100594.97;;;26.18;38.60
28428;BME280;15662;49.128;8.520;2023-05-23T11:43:14;100608.09;;;26.13;39.29
28428;BME280;15662;49.128;8.520;2023-05-23T11:45:43;100612.38;;;26.15;39.28
28428;BME280;15662;49.128;8.520;2023-05-23T11:48:15;100608.13;;;26.22;39.28
28428;BME280;15662;49.128;8.520;2023-05-23T11:50:52;100604.31;;;26.35;39.23
28428;BME280;15662;49.128;8.520;2023-05-23T11:53:22;100604.06;;;26.38;39.18
28428;BME280;15662;49.128;8.520;2023-05-23T11:55:57;100599.13;;;26.43;38.91
28428;BME280;15662;49.128;8.520;2023-05-23T11:58:36;100582.56;;;26.46;38.76
28428;BME280;15662;49.128;8.520;2023-05-23T12:01:07;100601.72;;;26.54;38.92
28428;BME280;15662;49.128;8.520;2023-05-23T12:03:45;100603.34;;;26.57;38.56
28428;BME280;15662;49.128;8.520;2023-05-23T12:06:21;100598.44;;;26.51;38.71
28428;BME280;15662;49.128;8.520;2023-05-23T12:08:53;100606.78;;;26.38;38.92
28428;BME280;15662;49.128;8.520;2023-05-23T12:11:22;100600.50;;;26.37;38.81
28428;BME280;15662;49.128;8.520;2023-05-23T12:13:51;100593.91;;;26.40;38.71
28428;BME280;15662;49.128;8.520;2023-05-23T12:16:22;100606.63;;;26.39;38.91
28428;BME280;15662;49.128;8.520;2023-05-23T12:18:50;100595.53;;;26.42;38.88
28428;BME280;15662;49.128;8.520;2023-05-23T12:21:19;100598.97;;;26.44;38.55
28428;BME280;15662;49.128;8.520;2023-05-23T12:23:48;100599.16;;;26.53;38.43
28428;BME280;15662;49.128;8.520;2023-05-23T12:26:15;100587.31;;;26.63;38.16
28428;BME280;15662;49.128;8.520;2023-05-23T12:28:45;100595.25;;;26.76;38.23
28428;BME280;15662;49.128;8.520;2023-05-23T12:31:21;100594.00;;;26.90;37.92
28428;BME280;15662;49.128;8.520;2023-05-23T12:33:52;100581.72;;;26.95;38.11
28428;BME280;15662;49.128;8.520;2023-05-23T12:36:28;100585.41;;;27.04;38.19
28428;BME280;15662;49.128;8.520;2023-05-23T12:39:05;100585.78;;;27.11;38.05
28428;BME280;15662;49.128;8.520;2023-05-23T12:41:36;100582.34;;;27.18;38.19
28428;BME280;15662;49.128;8.520;2023-05-23T12:44:04;100585.38;;;27.25;37.95
28428;BME280;15662;49.128;8.520;2023-05-23T12:46:33;100586.50;;;27.32;37.87
28428;BME280;15662;49.128;8.520;2023-05-23T12:49:01;100581.34;;;27.39;37.89
28428;BME280;15662;49.128;8.520;2023-05-23T12:51:31;100577.91;;;27.46;37.76
28428;BME280;15662;49.128;8.520;2023-05-23T12:53:59;100582.78;;;27.52;37.50
28428;BME280;15662;49.128;8.520;2023-05-23T12:56:27;100591.09;;;27.61;37.17
28428;BME280;15662;49.128;8.520;2023-05-23T12:58:55;100580.63;;;27.66;36.94
28428;BME280;15662;49.128;8.520;2023-05-23T13:01:23;100583.19;;;27.67;36.70
28428;BME280;15662;49.128;8.520;2023-05-23T13:03:51;100583.34;;;27.66;36.64
28428;BME280;15662;49.128;8.520;2023-05-23T13:06:19;100587.38;;;27.62;36.57
28428;BME280;15662;49.128;8.520;2023-05-23T13:08:47;100585.06;;;27.57;36.53
28428;BME280;15662;49.128;8.520;2023-05-23T13:11:23;100571.03;;;27.52;36.20
28428;BME280;15662;49.128;8.520;2023-05-23T13:13:50;100572.19;;;27.49;35.68
28428;BME280;15662;49.128;8.520;2023-05-23T13:16:22;100572.03;;;27.51;35.64
28428;BME280;15662;49.128;8.520;2023-05-23T13:18:55;100572.75;;;27.43;35.63
28428;BME280;15662;49.128;8.520;2023-05-23T13:21:23;100573.47;;;27.36;35.88
28428;BME280;15662;49.128;8.520;2023-05-23T13:23:51;100565.47;;;27.24;35.76
28428;BME280;15662;49.128;8.520;2023-05-23T13:26:19;100571.31;;;27.20;35.98
28428;BME280;15662;49.128;8.520;2023-05-23T13:28:49;100573.47;;;27.16;35.89